Almedia, Pennsylvania
Current Conditions -  °F | °C
As of 8:15 AM on Thursday 23 Oct 2014 (Local Time) from KHZL Reporting Station
Drizzle Drizzle  
Wind Chill: 39°   Ceiling: 900
Heat Index: 45°   Visibility: 10mi
Dew Point: 41°   Wind: 12mph
Humidity: 87%   Direction: 310°NW
Pressure: 29.88"   Gusts: NA
Location:  41.0301°N, 76.4558°W
Report Text: KHZL 231215Z AUTO 31010KT 10SM -DZ OVC009 07/05 A2988 RMK AO2
Loading
Personal Weather Stations






























Interactive Weather Map
Tropical Storm Tracking
New forecast layout! Learn more

10-Day Weather Forecast

Advertisements
Track Severe Weather on mobile